sensor_id;sensor_type;location;lat;lon;timestamp;P1;durP1;ratioP1;P2;durP2;ratioP2
27728;SDS011;15126;42.186;24.340;2024-02-21T00:02:06;56.67;;;24.15;;
27728;SDS011;15126;42.186;24.340;2024-02-21T00:04:32;49.63;;;23.92;;
27728;SDS011;15126;42.186;24.340;2024-02-21T00:06:57;48.13;;;24.40;;
27728;SDS011;15126;42.186;24.340;2024-02-21T00:09:24;47.20;;;23.33;;
27728;SDS011;15126;42.186;24.340;2024-02-21T00:11:49;49.40;;;24.10;;
27728;SDS011;15126;42.186;24.340;2024-02-21T00:14:14;52.92;;;24.67;;
27728;SDS011;15126;42.186;24.340;2024-02-21T00:16:49;43.80;;;22.48;;
27728;SDS011;15126;42.186;24.340;2024-02-21T00:19:14;44.13;;;22.45;;
27728;SDS011;15126;42.186;24.340;2024-02-21T00:21:40;47.97;;;24.63;;
27728;SDS011;15126;42.186;24.340;2024-02-21T00:24:06;49.88;;;22.77;;
27728;SDS011;15126;42.186;24.340;2024-02-21T00:26:31;48.35;;;22.05;;
27728;SDS011;15126;42.186;24.340;2024-02-21T00:28:57;53.08;;;24.58;;
27728;SDS011;15126;42.186;24.340;2024-02-21T00:31:22;49.25;;;23.63;;
27728;SDS011;15126;42.186;24.340;2024-02-21T00:33:48;54.22;;;24.10;;
27728;SDS011;15126;42.186;24.340;2024-02-21T00:36:13;50.08;;;24.27;;
27728;SDS011;15126;42.186;24.340;2024-02-21T00:38:40;49.70;;;23.88;;
27728;SDS011;15126;42.186;24.340;2024-02-21T00:41:05;53.97;;;24.25;;
27728;SDS011;15126;42.186;24.340;2024-02-21T00:43:33;51.92;;;24.55;;
27728;SDS011;15126;42.186;24.340;2024-02-21T00:45:58;53.38;;;24.33;;
27728;SDS011;15126;42.186;24.340;2024-02-21T00:48:24;56.28;;;27.15;;
27728;SDS011;15126;42.186;24.340;2024-02-21T00:50:49;56.95;;;24.88;;
27728;SDS011;15126;42.186;24.340;2024-02-21T00:53:15;53.10;;;25.90;;
27728;SDS011;15126;42.186;24.340;2024-02-21T00:55:43;49.08;;;23.98;;
27728;SDS011;15126;42.186;24.340;2024-02-21T00:58:08;50.60;;;25.27;;
27728;SDS011;15126;42.186;24.340;2024-02-21T01:00:34;53.42;;;25.13;;
27728;SDS011;15126;42.186;24.340;2024-02-21T01:02:59;50.50;;;23.85;;
27728;SDS011;15126;42.186;24.340;2024-02-21T01:05:25;55.45;;;26.60;;
27728;SDS011;15126;42.186;24.340;2024-02-21T01:07:52;54.47;;;24.70;;
27728;SDS011;15126;42.186;24.340;2024-02-21T01:10:17;50.22;;;23.30;;
27728;SDS011;15126;42.186;24.340;2024-02-21T01:12:43;55.72;;;24.50;;
27728;SDS011;15126;42.186;24.340;2024-02-21T01:15:08;52.80;;;24.45;;
27728;SDS011;15126;42.186;24.340;2024-02-21T01:17:35;51.70;;;24.92;;
27728;SDS011;15126;42.186;24.340;2024-02-21T01:20:00;54.08;;;26.30;;
27728;SDS011;15126;42.186;24.340;2024-02-21T01:22:26;48.20;;;24.08;;
27728;SDS011;15126;42.186;24.340;2024-02-21T01:24:51;52.00;;;22.85;;
27728;SDS011;15126;42.186;24.340;2024-02-21T01:27:17;54.47;;;25.23;;
27728;SDS011;15126;42.186;24.340;2024-02-21T01:29:42;49.13;;;22.85;;
27728;SDS011;15126;42.186;24.340;2024-02-21T01:32:07;50.00;;;22.45;;
27728;SDS011;15126;42.186;24.340;2024-02-21T01:34:33;47.40;;;22.10;;
27728;SDS011;15126;42.186;24.340;2024-02-21T01:36:59;49.95;;;22.73;;
27728;SDS011;15126;42.186;24.340;2024-02-21T01:39:24;53.83;;;23.58;;
27728;SDS011;15126;42.186;24.340;2024-02-21T01:41:50;47.42;;;21.83;;
27728;SDS011;15126;42.186;24.340;2024-02-21T01:44:15;50.22;;;23.17;;
27728;SDS011;15126;42.186;24.340;2024-02-21T01:46:41;45.70;;;21.80;;
27728;SDS011;15126;42.186;24.340;2024-02-21T01:49:06;47.95;;;22.00;;
27728;SDS011;15126;42.186;24.340;2024-02-21T01:51:32;49.90;;;23.00;;
27728;SDS011;15126;42.186;24.340;2024-02-21T01:53:57;47.97;;;22.02;;
27728;SDS011;15126;42.186;24.340;2024-02-21T01:56:23;41.78;;;21.23;;
27728;SDS011;15126;42.186;24.340;2024-02-21T01:58:49;55.78;;;22.52;;
27728;SDS011;15126;42.186;24.340;2024-02-21T02:01:16;51.40;;;22.58;;
27728;SDS011;15126;42.186;24.340;2024-02-21T02:03:42;48.30;;;22.17;;
27728;SDS011;15126;42.186;24.340;2024-02-21T02:06:10;47.45;;;21.65;;
27728;SDS011;15126;42.186;24.340;2024-02-21T02:08:36;46.72;;;22.67;;
27728;SDS011;15126;42.186;24.340;2024-02-21T02:11:01;44.78;;;22.30;;
27728;SDS011;15126;42.186;24.340;2024-02-21T02:13:27;41.42;;;19.65;;
27728;SDS011;15126;42.186;24.340;2024-02-21T02:18:19;45.45;;;21.90;;
27728;SDS011;15126;42.186;24.340;2024-02-21T02:20:45;40.63;;;20.83;;
27728;SDS011;15126;42.186;24.340;2024-02-21T02:23:22;44.25;;;18.65;;
27728;SDS011;15126;42.186;24.340;2024-02-21T02:25:48;42.90;;;21.13;;
27728;SDS011;15126;42.186;24.340;2024-02-21T02:28:16;43.22;;;20.77;;
27728;SDS011;15126;42.186;24.340;2024-02-21T02:30:41;40.67;;;20.42;;
27728;SDS011;15126;42.186;24.340;2024-02-21T02:33:07;44.22;;;20.27;;
27728;SDS011;15126;42.186;24.340;2024-02-21T02:35:32;45.28;;;22.35;;
27728;SDS011;15126;42.186;24.340;2024-02-21T02:37:58;38.75;;;19.63;;
27728;SDS011;15126;42.186;24.340;2024-02-21T02:40:23;39.20;;;19.10;;
27728;SDS011;15126;42.186;24.340;2024-02-21T02:47:41;39.00;;;18.35;;
27728;SDS011;15126;42.186;24.340;2024-02-21T02:50:07;42.47;;;20.70;;
27728;SDS011;15126;42.186;24.340;2024-02-21T02:52:33;43.45;;;20.52;;
27728;SDS011;15126;42.186;24.340;2024-02-21T02:54:59;43.22;;;20.33;;
27728;SDS011;15126;42.186;24.340;2024-02-21T02:57:24;40.47;;;20.42;;
27728;SDS011;15126;42.186;24.340;2024-02-21T02:59:50;39.53;;;19.35;;
27728;SDS011;15126;42.186;24.340;2024-02-21T03:02:16;36.50;;;18.08;;
27728;SDS011;15126;42.186;24.340;2024-02-21T03:04:43;36.90;;;17.65;;
27728;SDS011;15126;42.186;24.340;2024-02-21T03:09:34;36.60;;;17.43;;
27728;SDS011;15126;42.186;24.340;2024-02-21T03:11:59;35.85;;;17.75;;
27728;SDS011;15126;42.186;24.340;2024-02-21T03:14:30;33.08;;;17.77;;
27728;SDS011;15126;42.186;24.340;2024-02-21T03:16:57;36.33;;;18.25;;
27728;SDS011;15126;42.186;24.340;2024-02-21T03:19:23;38.03;;;17.65;;
27728;SDS011;15126;42.186;24.340;2024-02-21T03:21:49;36.45;;;18.02;;
27728;SDS011;15126;42.186;24.340;2024-02-21T03:24:15;33.92;;;17.42;;
27728;SDS011;15126;42.186;24.340;2024-02-21T03:26:41;34.58;;;17.42;;
27728;SDS011;15126;42.186;24.340;2024-02-21T03:29:06;36.67;;;17.92;;
27728;SDS011;15126;42.186;24.340;2024-02-21T03:33:58;35.70;;;16.88;;
27728;SDS011;15126;42.186;24.340;2024-02-21T03:36:23;35.28;;;18.02;;
27728;SDS011;15126;42.186;24.340;2024-02-21T03:38:49;34.13;;;17.90;;
27728;SDS011;15126;42.186;24.340;2024-02-21T03:41:14;33.58;;;16.65;;
27728;SDS011;15126;42.186;24.340;2024-02-21T03:43:39;33.13;;;15.90;;
27728;SDS011;15126;42.186;24.340;2024-02-21T03:46:05;34.88;;;18.05;;
27728;SDS011;15126;42.186;24.340;2024-02-21T03:48:32;31.63;;;17.25;;
27728;SDS011;15126;42.186;24.340;2024-02-21T03:50:57;33.83;;;17.13;;
27728;SDS011;15126;42.186;24.340;2024-02-21T03:53:23;34.25;;;16.67;;
27728;SDS011;15126;42.186;24.340;2024-02-21T03:55:48;30.40;;;16.48;;
27728;SDS011;15126;42.186;24.340;2024-02-21T03:58:14;37.80;;;16.85;;
27728;SDS011;15126;42.186;24.340;2024-02-21T04:00:39;36.10;;;16.75;;
27728;SDS011;15126;42.186;24.340;2024-02-21T04:03:05;33.40;;;17.35;;
27728;SDS011;15126;42.186;24.340;2024-02-21T04:05:31;31.27;;;15.95;;
27728;SDS011;15126;42.186;24.340;2024-02-21T04:07:57;31.67;;;15.45;;
27728;SDS011;15126;42.186;24.340;2024-02-21T04:10:22;31.42;;;15.63;;
27728;SDS011;15126;42.186;24.340;2024-02-21T04:12:47;31.85;;;15.95;;
27728;SDS011;15126;42.186;24.340;2024-02-21T04:15:15;33.30;;;16.88;;
27728;SDS011;15126;42.186;24.340;2024-02-21T04:20:13;31.92;;;16.63;;
27728;SDS011;15126;42.186;24.340;2024-02-21T04:25:05;34.72;;;17.70;;
27728;SDS011;15126;42.186;24.340;2024-02-21T04:27:30;32.78;;;16.30;;
27728;SDS011;15126;42.186;24.340;2024-02-21T04:29:56;30.83;;;15.20;;
27728;SDS011;15126;42.186;24.340;2024-02-21T04:32:21;29.20;;;14.32;;
27728;SDS011;15126;42.186;24.340;2024-02-21T04:34:47;30.15;;;13.20;;
27728;SDS011;15126;42.186;24.340;2024-02-21T04:37:12;26.40;;;14.02;;
27728;SDS011;15126;42.186;24.340;2024-02-21T04:39:38;21.77;;;12.23;;
27728;SDS011;15126;42.186;24.340;2024-02-21T04:42:06;24.88;;;12.38;;
27728;SDS011;15126;42.186;24.340;2024-02-21T04:44:32;26.38;;;12.60;;
27728;SDS011;15126;42.186;24.340;2024-02-21T04:47:00;22.88;;;11.82;;
27728;SDS011;15126;42.186;24.340;2024-02-21T04:49:28;19.85;;;10.55;;
27728;SDS011;15126;42.186;24.340;2024-02-21T04:51:54;25.27;;;13.40;;
27728;SDS011;15126;42.186;24.340;2024-02-21T04:54:19;24.40;;;11.43;;
27728;SDS011;15126;42.186;24.340;2024-02-21T04:56:45;22.00;;;11.18;;
27728;SDS011;15126;42.186;24.340;2024-02-21T04:59:10;22.05;;;10.15;;
27728;SDS011;15126;42.186;24.340;2024-02-21T05:01:36;21.77;;;11.00;;
27728;SDS011;15126;42.186;24.340;2024-02-21T05:04:01;21.65;;;10.93;;
27728;SDS011;15126;42.186;24.340;2024-02-21T05:06:27;24.02;;;12.55;;
27728;SDS011;15126;42.186;24.340;2024-02-21T05:08:55;30.25;;;14.32;;
27728;SDS011;15126;42.186;24.340;2024-02-21T05:11:23;24.40;;;12.32;;
27728;SDS011;15126;42.186;24.340;2024-02-21T05:13:49;20.80;;;11.20;;
27728;SDS011;15126;42.186;24.340;2024-02-21T05:16:15;23.95;;;11.55;;
27728;SDS011;15126;42.186;24.340;2024-02-21T05:18:44;21.52;;;11.32;;
27728;SDS011;15126;42.186;24.340;2024-02-21T05:21:10;22.98;;;12.73;;
27728;SDS011;15126;42.186;24.340;2024-02-21T05:23:35;20.42;;;11.27;;
27728;SDS011;15126;42.186;24.340;2024-02-21T05:26:05;18.17;;;9.70;;
27728;SDS011;15126;42.186;24.340;2024-02-21T05:28:31;20.55;;;11.57;;
27728;SDS011;15126;42.186;24.340;2024-02-21T05:30:56;19.98;;;11.30;;
27728;SDS011;15126;42.186;24.340;2024-02-21T05:33:22;17.30;;;10.05;;
27728;SDS011;15126;42.186;24.340;2024-02-21T05:35:48;19.45;;;10.15;;
27728;SDS011;15126;42.186;24.340;2024-02-21T05:38:14;21.67;;;9.95;;
27728;SDS011;15126;42.186;24.340;2024-02-21T05:40:40;16.48;;;8.93;;
27728;SDS011;15126;42.186;24.340;2024-02-21T05:43:09;20.15;;;9.75;;
27728;SDS011;15126;42.186;24.340;2024-02-21T05:45:35;18.48;;;10.32;;
27728;SDS011;15126;42.186;24.340;2024-02-21T05:48:02;19.35;;;10.15;;
27728;SDS011;15126;42.186;24.340;2024-02-21T05:50:29;18.25;;;9.18;;
27728;SDS011;15126;42.186;24.340;2024-02-21T05:52:54;19.52;;;9.25;;
27728;SDS011;15126;42.186;24.340;2024-02-21T05:55:23;15.60;;;8.98;;
27728;SDS011;15126;42.186;24.340;2024-02-21T05:57:49;19.23;;;9.52;;
27728;SDS011;15126;42.186;24.340;2024-02-21T06:00:15;21.02;;;10.82;;
27728;SDS011;15126;42.186;24.340;2024-02-21T06:02:41;25.42;;;11.23;;
27728;SDS011;15126;42.186;24.340;2024-02-21T06:05:07;25.25;;;12.35;;
27728;SDS011;15126;42.186;24.340;2024-02-21T06:07:34;19.83;;;10.90;;
27728;SDS011;15126;42.186;24.340;2024-02-21T06:12:28;17.05;;;9.55;;
27728;SDS011;15126;42.186;24.340;2024-02-21T06:14:53;17.73;;;9.90;;
27728;SDS011;15126;42.186;24.340;2024-02-21T06:17:19;18.55;;;9.38;;
27728;SDS011;15126;42.186;24.340;2024-02-21T06:19:44;17.95;;;11.20;;
27728;SDS011;15126;42.186;24.340;2024-02-21T06:22:12;19.17;;;11.35;;
27728;SDS011;15126;42.186;24.340;2024-02-21T06:24:38;21.85;;;10.75;;
27728;SDS011;15126;42.186;24.340;2024-02-21T06:27:04;21.65;;;11.45;;
27728;SDS011;15126;42.186;24.340;2024-02-21T06:29:31;19.55;;;10.85;;
27728;SDS011;15126;42.186;24.340;2024-02-21T06:32:00;20.33;;;13.15;;
27728;SDS011;15126;42.186;24.340;2024-02-21T06:39:19;18.52;;;9.77;;
27728;SDS011;15126;42.186;24.340;2024-02-21T06:41:54;18.92;;;10.45;;
27728;SDS011;15126;42.186;24.340;2024-02-21T06:44:20;15.20;;;9.73;;
27728;SDS011;15126;42.186;24.340;2024-02-21T06:46:46;17.50;;;9.18;;
27728;SDS011;15126;42.186;24.340;2024-02-21T06:49:12;17.63;;;10.32;;
27728;SDS011;15126;42.186;24.340;2024-02-21T06:51:41;17.23;;;9.35;;
27728;SDS011;15126;42.186;24.340;2024-02-21T06:54:08;21.70;;;10.82;;
27728;SDS011;15126;42.186;24.340;2024-02-21T06:56:34;20.27;;;10.30;;
27728;SDS011;15126;42.186;24.340;2024-02-21T06:59:00;20.73;;;11.05;;
27728;SDS011;15126;42.186;24.340;2024-02-21T07:01:33;17.73;;;8.82;;
27728;SDS011;15126;42.186;24.340;2024-02-21T07:06:26;16.10;;;8.65;;
27728;SDS011;15126;42.186;24.340;2024-02-21T07:11:17;18.38;;;8.07;;
27728;SDS011;15126;42.186;24.340;2024-02-21T07:16:08;13.82;;;7.25;;
27728;SDS011;15126;42.186;24.340;2024-02-21T07:20:59;15.48;;;8.02;;
27728;SDS011;15126;42.186;24.340;2024-02-21T07:25:50;12.23;;;7.38;;
27728;SDS011;15126;42.186;24.340;2024-02-21T07:30:42;12.30;;;7.00;;
27728;SDS011;15126;42.186;24.340;2024-02-21T07:33:08;15.23;;;7.80;;
27728;SDS011;15126;42.186;24.340;2024-02-21T07:37:59;12.93;;;7.47;;
27728;SDS011;15126;42.186;24.340;2024-02-21T07:42:50;19.73;;;8.07;;
27728;SDS011;15126;42.186;24.340;2024-02-21T07:47:41;12.25;;;7.07;;
27728;SDS011;15126;42.186;24.340;2024-02-21T07:52:35;13.55;;;6.93;;
27728;SDS011;15126;42.186;24.340;2024-02-21T07:55:00;13.07;;;6.82;;
27728;SDS011;15126;42.186;24.340;2024-02-21T07:59:52;9.00;;;5.20;;
27728;SDS011;15126;42.186;24.340;2024-02-21T08:04:42;8.02;;;4.88;;
27728;SDS011;15126;42.186;24.340;2024-02-21T08:09:34;9.43;;;5.63;;
27728;SDS011;15126;42.186;24.340;2024-02-21T08:12:01;9.50;;;5.70;;
27728;SDS011;15126;42.186;24.340;2024-02-21T08:14:27;10.85;;;6.47;;
27728;SDS011;15126;42.186;24.340;2024-02-21T08:16:52;9.80;;;5.90;;
27728;SDS011;15126;42.186;24.340;2024-02-21T08:19:20;11.18;;;6.25;;
27728;SDS011;15126;42.186;24.340;2024-02-21T08:21:48;11.00;;;6.40;;
27728;SDS011;15126;42.186;24.340;2024-02-21T08:24:14;10.15;;;5.95;;
27728;SDS011;15126;42.186;24.340;2024-02-21T08:26:43;10.52;;;6.25;;
27728;SDS011;15126;42.186;24.340;2024-02-21T08:29:12;8.80;;;5.20;;
27728;SDS011;15126;42.186;24.340;2024-02-21T08:31:37;12.45;;;6.20;;
27728;SDS011;15126;42.186;24.340;2024-02-21T08:36:35;9.50;;;4.78;;
27728;SDS011;15126;42.186;24.340;2024-02-21T08:41:30;10.10;;;6.00;;
27728;SDS011;15126;42.186;24.340;2024-02-21T08:43:56;10.23;;;6.28;;
27728;SDS011;15126;42.186;24.340;2024-02-21T08:46:22;9.98;;;5.80;;
27728;SDS011;15126;42.186;24.340;2024-02-21T08:48:49;8.82;;;5.70;;
27728;SDS011;15126;42.186;24.340;2024-02-21T08:51:19;10.63;;;6.07;;
27728;SDS011;15126;42.186;24.340;2024-02-21T08:53:45;10.35;;;6.07;;
27728;SDS011;15126;42.186;24.340;2024-02-21T08:56:12;8.80;;;5.43;;
27728;SDS011;15126;42.186;24.340;2024-02-21T08:58:38;10.45;;;5.88;;
27728;SDS011;15126;42.186;24.340;2024-02-21T09:01:05;9.13;;;5.80;;
27728;SDS011;15126;42.186;24.340;2024-02-21T09:03:35;12.25;;;5.65;;
27728;SDS011;15126;42.186;24.340;2024-02-21T09:06:04;9.48;;;5.50;;
27728;SDS011;15126;42.186;24.340;2024-02-21T09:08:38;10.40;;;6.15;;
27728;SDS011;15126;42.186;24.340;2024-02-21T09:11:05;7.95;;;5.50;;
27728;SDS011;15126;42.186;24.340;2024-02-21T09:13:31;11.00;;;6.43;;
27728;SDS011;15126;42.186;24.340;2024-02-21T09:15:56;9.55;;;5.97;;
27728;SDS011;15126;42.186;24.340;2024-02-21T09:18:24;8.95;;;5.05;;
27728;SDS011;15126;42.186;24.340;2024-02-21T09:20:50;10.45;;;5.15;;
27728;SDS011;15126;42.186;24.340;2024-02-21T09:23:15;7.45;;;5.25;;
27728;SDS011;15126;42.186;24.340;2024-02-21T09:25:41;7.45;;;4.60;;
27728;SDS011;15126;42.186;24.340;2024-02-21T09:28:07;6.72;;;3.97;;
27728;SDS011;15126;42.186;24.340;2024-02-21T09:30:35;5.85;;;3.25;;
27728;SDS011;15126;42.186;24.340;2024-02-21T09:33:00;5.35;;;3.20;;
27728;SDS011;15126;42.186;24.340;2024-02-21T09:35:33;4.90;;;2.70;;
27728;SDS011;15126;42.186;24.340;2024-02-21T09:37:59;4.10;;;2.45;;
27728;SDS011;15126;42.186;24.340;2024-02-21T09:40:25;4.63;;;2.65;;
27728;SDS011;15126;42.186;24.340;2024-02-21T09:42:55;4.75;;;2.75;;
27728;SDS011;15126;42.186;24.340;2024-02-21T09:45:29;4.22;;;3.10;;
27728;SDS011;15126;42.186;24.340;2024-02-21T09:50:41;5.38;;;2.85;;
27728;SDS011;15126;42.186;24.340;2024-02-21T09:53:09;5.15;;;3.03;;
27728;SDS011;15126;42.186;24.340;2024-02-21T09:55:37;7.78;;;3.33;;
27728;SDS011;15126;42.186;24.340;2024-02-21T09:58:06;4.05;;;2.70;;
27728;SDS011;15126;42.186;24.340;2024-02-21T10:00:33;10.68;;;4.05;;
27728;SDS011;15126;42.186;24.340;2024-02-21T10:03:00;5.90;;;3.50;;
27728;SDS011;15126;42.186;24.340;2024-02-21T10:05:25;4.10;;;2.95;;
27728;SDS011;15126;42.186;24.340;2024-02-21T10:07:52;7.22;;;3.08;;
27728;SDS011;15126;42.186;24.340;2024-02-21T10:10:19;5.30;;;2.90;;
27728;SDS011;15126;42.186;24.340;2024-02-21T10:12:50;4.03;;;2.85;;
27728;SDS011;15126;42.186;24.340;2024-02-21T10:15:19;4.20;;;2.63;;
27728;SDS011;15126;42.186;24.340;2024-02-21T10:17:46;5.03;;;3.15;;
27728;SDS011;15126;42.186;24.340;2024-02-21T10:20:15;7.15;;;3.33;;
27728;SDS011;15126;42.186;24.340;2024-02-21T10:22:41;6.28;;;2.40;;
27728;SDS011;15126;42.186;24.340;2024-02-21T10:25:09;5.55;;;3.28;;
27728;SDS011;15126;42.186;24.340;2024-02-21T10:27:36;13.95;;;6.25;;
27728;SDS011;15126;42.186;24.340;2024-02-21T10:30:02;6.13;;;3.78;;
27728;SDS011;15126;42.186;24.340;2024-02-21T10:32:33;7.63;;;3.67;;
27728;SDS011;15126;42.186;24.340;2024-02-21T10:35:02;4.25;;;2.95;;
27728;SDS011;15126;42.186;24.340;2024-02-21T10:37:35;5.28;;;3.00;;
27728;SDS011;15126;42.186;24.340;2024-02-21T10:40:00;5.65;;;3.75;;
27728;SDS011;15126;42.186;24.340;2024-02-21T10:42:29;4.72;;;3.00;;
27728;SDS011;15126;42.186;24.340;2024-02-21T10:44:58;3.78;;;2.53;;
27728;SDS011;15126;42.186;24.340;2024-02-21T10:47:26;6.30;;;3.40;;
27728;SDS011;15126;42.186;24.340;2024-02-21T10:49:59;3.72;;;2.30;;
27728;SDS011;15126;42.186;24.340;2024-02-21T10:55:20;4.13;;;2.78;;
27728;SDS011;15126;42.186;24.340;2024-02-21T10:57:53;3.92;;;3.00;;
27728;SDS011;15126;42.186;24.340;2024-02-21T11:00:21;4.45;;;2.40;;
27728;SDS011;15126;42.186;24.340;2024-02-21T11:02:49;4.03;;;1.92;;
27728;SDS011;15126;42.186;24.340;2024-02-21T11:05:17;3.05;;;2.10;;
27728;SDS011;15126;42.186;24.340;2024-02-21T11:07:45;5.38;;;2.25;;
27728;SDS011;15126;42.186;24.340;2024-02-21T11:10:23;4.18;;;2.38;;
27728;SDS011;15126;42.186;24.340;2024-02-21T11:13:04;4.43;;;1.80;;
27728;SDS011;15126;42.186;24.340;2024-02-21T11:15:33;3.50;;;1.80;;
27728;SDS011;15126;42.186;24.340;2024-02-21T11:17:59;18.60;;;8.15;;
27728;SDS011;15126;42.186;24.340;2024-02-21T11:20:34;6.68;;;3.33;;
27728;SDS011;15126;42.186;24.340;2024-02-21T11:23:01;6.63;;;3.50;;
27728;SDS011;15126;42.186;24.340;2024-02-21T11:25:27;5.72;;;3.70;;
27728;SDS011;15126;42.186;24.340;2024-02-21T11:28:02;4.18;;;2.70;;
27728;SDS011;15126;42.186;24.340;2024-02-21T11:30:32;5.93;;;3.58;;
27728;SDS011;15126;42.186;24.340;2024-02-21T11:33:01;4.65;;;3.35;;
27728;SDS011;15126;42.186;24.340;2024-02-21T11:35:31;7.43;;;2.78;;
27728;SDS011;15126;42.186;24.340;2024-02-21T11:38:08;5.90;;;3.10;;
27728;SDS011;15126;42.186;24.340;2024-02-21T11:40:40;3.53;;;2.70;;
27728;SDS011;15126;42.186;24.340;2024-02-21T11:43:06;3.63;;;2.10;;
27728;SDS011;15126;42.186;24.340;2024-02-21T11:45:35;4.15;;;2.13;;
27728;SDS011;15126;42.186;24.340;2024-02-21T11:48:00;4.07;;;1.77;;
27728;SDS011;15126;42.186;24.340;2024-02-21T11:50:29;3.45;;;2.22;;
27728;SDS011;15126;42.186;24.340;2024-02-21T11:52:56;4.15;;;1.95;;
27728;SDS011;15126;42.186;24.340;2024-02-21T11:55:22;4.18;;;2.10;;
27728;SDS011;15126;42.186;24.340;2024-02-21T11:57:48;4.07;;;1.98;;
27728;SDS011;15126;42.186;24.340;2024-02-21T12:00:17;5.25;;;2.60;;
27728;SDS011;15126;42.186;24.340;2024-02-21T12:02:47;4.38;;;1.90;;
27728;SDS011;15126;42.186;24.340;2024-02-21T12:05:13;4.32;;;2.65;;
27728;SDS011;15126;42.186;24.340;2024-02-21T12:07:39;5.80;;;2.63;;
27728;SDS011;15126;42.186;24.340;2024-02-21T12:10:09;4.15;;;2.38;;
27728;SDS011;15126;42.186;24.340;2024-02-21T12:12:36;3.47;;;2.35;;
27728;SDS011;15126;42.186;24.340;2024-02-21T12:15:03;4.00;;;2.08;;
27728;SDS011;15126;42.186;24.340;2024-02-21T12:17:30;4.10;;;2.20;;
27728;SDS011;15126;42.186;24.340;2024-02-21T12:19:57;4.30;;;2.53;;
27728;SDS011;15126;42.186;24.340;2024-02-21T12:22:24;8.45;;;2.25;;
27728;SDS011;15126;42.186;24.340;2024-02-21T12:24:50;5.10;;;2.30;;
27728;SDS011;15126;42.186;24.340;2024-02-21T12:27:16;9.60;;;4.30;;
27728;SDS011;15126;42.186;24.340;2024-02-21T12:29:41;3.80;;;2.10;;
27728;SDS011;15126;42.186;24.340;2024-02-21T12:32:07;10.02;;;4.47;;
27728;SDS011;15126;42.186;24.340;2024-02-21T12:34:32;19.90;;;8.15;;
27728;SDS011;15126;42.186;24.340;2024-02-21T12:36:58;7.57;;;3.28;;
27728;SDS011;15126;42.186;24.340;2024-02-21T12:39:24;12.50;;;5.53;;
27728;SDS011;15126;42.186;24.340;2024-02-21T12:41:52;10.25;;;4.40;;
27728;SDS011;15126;42.186;24.340;2024-02-21T12:44:19;9.10;;;4.53;;
27728;SDS011;15126;42.186;24.340;2024-02-21T12:46:47;10.02;;;4.45;;
27728;SDS011;15126;42.186;24.340;2024-02-21T12:49:19;21.70;;;9.32;;
27728;SDS011;15126;42.186;24.340;2024-02-21T12:51:47;21.83;;;8.45;;
27728;SDS011;15126;42.186;24.340;2024-02-21T12:54:13;16.90;;;6.97;;
27728;SDS011;15126;42.186;24.340;2024-02-21T12:56:38;7.35;;;4.05;;
27728;SDS011;15126;42.186;24.340;2024-02-21T12:59:05;7.72;;;3.42;;
27728;SDS011;15126;42.186;24.340;2024-02-21T13:01:34;17.65;;;7.32;;
27728;SDS011;15126;42.186;24.340;2024-02-21T13:04:04;8.73;;;4.50;;
27728;SDS011;15126;42.186;24.340;2024-02-21T13:06:29;8.80;;;4.35;;
27728;SDS011;15126;42.186;24.340;2024-02-21T13:08:57;5.75;;;3.35;;
27728;SDS011;15126;42.186;24.340;2024-02-21T13:11:27;7.00;;;3.60;;
27728;SDS011;15126;42.186;24.340;2024-02-21T13:13:56;12.18;;;5.47;;
27728;SDS011;15126;42.186;24.340;2024-02-21T13:16:22;6.32;;;3.38;;
27728;SDS011;15126;42.186;24.340;2024-02-21T13:18:53;8.73;;;4.95;;
27728;SDS011;15126;42.186;24.340;2024-02-21T13:21:19;7.20;;;3.80;;
27728;SDS011;15126;42.186;24.340;2024-02-21T13:23:50;9.27;;;5.20;;
27728;SDS011;15126;42.186;24.340;2024-02-21T13:26:15;14.27;;;6.55;;
27728;SDS011;15126;42.186;24.340;2024-02-21T13:28:41;6.18;;;3.58;;
27728;SDS011;15126;42.186;24.340;2024-02-21T13:31:07;6.75;;;3.83;;
27728;SDS011;15126;42.186;24.340;2024-02-21T13:33:35;16.73;;;5.70;;
27728;SDS011;15126;42.186;24.340;2024-02-21T13:36:01;9.82;;;4.40;;
27728;SDS011;15126;42.186;24.340;2024-02-21T13:38:28;8.52;;;3.65;;
27728;SDS011;15126;42.186;24.340;2024-02-21T13:40:54;8.63;;;5.13;;
27728;SDS011;15126;42.186;24.340;2024-02-21T13:43:19;17.50;;;7.70;;
27728;SDS011;15126;42.186;24.340;2024-02-21T13:45:58;6.57;;;4.43;;
27728;SDS011;15126;42.186;24.340;2024-02-21T13:48:24;38.95;;;21.08;;
27728;SDS011;15126;42.186;24.340;2024-02-21T13:50:50;19.15;;;11.57;;
27728;SDS011;15126;42.186;24.340;2024-02-21T13:53:20;7.72;;;4.93;;
27728;SDS011;15126;42.186;24.340;2024-02-21T13:55:48;7.35;;;4.13;;
27728;SDS011;15126;42.186;24.340;2024-02-21T13:58:15;10.73;;;4.68;;
27728;SDS011;15126;42.186;24.340;2024-02-21T14:00:41;13.98;;;7.13;;
27728;SDS011;15126;42.186;24.340;2024-02-21T14:03:06;7.63;;;4.05;;
27728;SDS011;15126;42.186;24.340;2024-02-21T14:05:32;9.57;;;5.40;;
27728;SDS011;15126;42.186;24.340;2024-02-21T14:08:00;9.23;;;5.38;;
27728;SDS011;15126;42.186;24.340;2024-02-21T14:10:25;7.93;;;3.90;;
27728;SDS011;15126;42.186;24.340;2024-02-21T14:12:51;6.10;;;3.63;;
27728;SDS011;15126;42.186;24.340;2024-02-21T14:15:17;11.30;;;4.47;;
27728;SDS011;15126;42.186;24.340;2024-02-21T14:17:42;11.93;;;4.63;;
27728;SDS011;15126;42.186;24.340;2024-02-21T14:20:08;8.02;;;4.78;;
27728;SDS011;15126;42.186;24.340;2024-02-21T14:22:34;5.57;;;3.28;;
27728;SDS011;15126;42.186;24.340;2024-02-21T14:25:05;6.30;;;3.92;;
27728;SDS011;15126;42.186;24.340;2024-02-21T14:27:31;4.72;;;3.13;;
27728;SDS011;15126;42.186;24.340;2024-02-21T14:29:57;4.50;;;2.75;;
27728;SDS011;15126;42.186;24.340;2024-02-21T14:32:23;5.82;;;3.20;;
27728;SDS011;15126;42.186;24.340;2024-02-21T14:34:48;7.55;;;2.83;;
27728;SDS011;15126;42.186;24.340;2024-02-21T14:37:14;5.43;;;2.72;;
27728;SDS011;15126;42.186;24.340;2024-02-21T14:39:42;8.85;;;4.18;;
27728;SDS011;15126;42.186;24.340;2024-02-21T14:42:08;6.78;;;3.03;;
27728;SDS011;15126;42.186;24.340;2024-02-21T14:44:36;5.68;;;3.20;;
27728;SDS011;15126;42.186;24.340;2024-02-21T14:47:02;5.95;;;3.85;;
27728;SDS011;15126;42.186;24.340;2024-02-21T14:49:28;5.78;;;3.30;;
27728;SDS011;15126;42.186;24.340;2024-02-21T14:51:57;6.85;;;3.30;;
27728;SDS011;15126;42.186;24.340;2024-02-21T14:54:25;15.48;;;8.65;;
27728;SDS011;15126;42.186;24.340;2024-02-21T14:56:51;6.28;;;3.53;;
27728;SDS011;15126;42.186;24.340;2024-02-21T14:59:16;9.85;;;4.43;;
27728;SDS011;15126;42.186;24.340;2024-02-21T15:01:43;6.82;;;3.95;;
27728;SDS011;15126;42.186;24.340;2024-02-21T15:04:08;5.97;;;3.40;;
27728;SDS011;15126;42.186;24.340;2024-02-21T15:06:34;5.57;;;3.67;;
27728;SDS011;15126;42.186;24.340;2024-02-21T15:09:05;5.80;;;3.47;;
27728;SDS011;15126;42.186;24.340;2024-02-21T15:11:32;6.38;;;3.92;;
27728;SDS011;15126;42.186;24.340;2024-02-21T15:13:58;8.52;;;5.10;;
27728;SDS011;15126;42.186;24.340;2024-02-21T15:16:23;7.40;;;4.03;;
27728;SDS011;15126;42.186;24.340;2024-02-21T15:18:51;8.27;;;4.03;;
27728;SDS011;15126;42.186;24.340;2024-02-21T15:21:17;9.77;;;4.93;;
27728;SDS011;15126;42.186;24.340;2024-02-21T15:23:44;7.35;;;4.53;;
27728;SDS011;15126;42.186;24.340;2024-02-21T15:26:09;10.15;;;5.45;;